sensor_id;sensor_type;location;lat;lon;timestamp;P1;durP1;ratioP1;P2;durP2;ratioP2
43519;SDS011;46848;51.980;5.918;2023-04-06T00:00:45;11.37;;;5.53;;
43519;SDS011;46848;51.980;5.918;2023-04-06T00:03:12;9.93;;;5.60;;
43519;SDS011;46848;51.980;5.918;2023-04-06T00:05:38;11.63;;;5.80;;
43519;SDS011;46848;51.980;5.918;2023-04-06T00:08:03;9.37;;;5.83;;
43519;SDS011;46848;51.980;5.918;2023-04-06T00:10:29;8.17;;;5.30;;
43519;SDS011;46848;51.980;5.918;2023-04-06T00:12:55;10.60;;;6.23;;
43519;SDS011;46848;51.980;5.918;2023-04-06T00:15:22;8.73;;;4.87;;
43519;SDS011;46848;51.980;5.918;2023-04-06T00:17:47;9.93;;;4.93;;
43519;SDS011;46848;51.980;5.918;2023-04-06T00:20:13;9.67;;;4.90;;
43519;SDS011;46848;51.980;5.918;2023-04-06T00:22:40;9.97;;;5.60;;
43519;SDS011;46848;51.980;5.918;2023-04-06T00:25:06;9.33;;;5.63;;
43519;SDS011;46848;51.980;5.918;2023-04-06T00:27:31;9.23;;;5.73;;
43519;SDS011;46848;51.980;5.918;2023-04-06T00:29:57;9.83;;;5.67;;
43519;SDS011;46848;51.980;5.918;2023-04-06T00:32:22;9.90;;;5.63;;
43519;SDS011;46848;51.980;5.918;2023-04-06T00:34:48;10.17;;;5.80;;
43519;SDS011;46848;51.980;5.918;2023-04-06T00:37:14;9.60;;;5.93;;
43519;SDS011;46848;51.980;5.918;2023-04-06T00:39:39;11.80;;;6.07;;
43519;SDS011;46848;51.980;5.918;2023-04-06T00:42:11;12.07;;;6.00;;
43519;SDS011;46848;51.980;5.918;2023-04-06T00:44:38;10.13;;;5.47;;
43519;SDS011;46848;51.980;5.918;2023-04-06T00:47:05;9.47;;;6.27;;
43519;SDS011;46848;51.980;5.918;2023-04-06T00:49:31;8.43;;;5.80;;
43519;SDS011;46848;51.980;5.918;2023-04-06T00:51:57;11.50;;;5.40;;
43519;SDS011;46848;51.980;5.918;2023-04-06T00:54:23;10.87;;;5.43;;
43519;SDS011;46848;51.980;5.918;2023-04-06T00:56:48;11.97;;;6.10;;
43519;SDS011;46848;51.980;5.918;2023-04-06T00:59:14;9.30;;;5.87;;
43519;SDS011;46848;51.980;5.918;2023-04-06T01:01:40;11.93;;;5.40;;
43519;SDS011;46848;51.980;5.918;2023-04-06T01:04:06;8.57;;;5.23;;
43519;SDS011;46848;51.980;5.918;2023-04-06T01:06:33;9.67;;;5.73;;
43519;SDS011;46848;51.980;5.918;2023-04-06T01:08:58;10.37;;;5.10;;
43519;SDS011;46848;51.980;5.918;2023-04-06T01:11:24;8.53;;;5.60;;
43519;SDS011;46848;51.980;5.918;2023-04-06T01:13:51;10.63;;;6.00;;
43519;SDS011;46848;51.980;5.918;2023-04-06T01:16:16;11.90;;;5.60;;
43519;SDS011;46848;51.980;5.918;2023-04-06T01:18:42;8.23;;;5.40;;
43519;SDS011;46848;51.980;5.918;2023-04-06T01:21:08;9.53;;;5.67;;
43519;SDS011;46848;51.980;5.918;2023-04-06T01:23:40;10.20;;;5.90;;
43519;SDS011;46848;51.980;5.918;2023-04-06T01:26:07;11.67;;;6.17;;
43519;SDS011;46848;51.980;5.918;2023-04-06T01:28:33;9.17;;;5.53;;
43519;SDS011;46848;51.980;5.918;2023-04-06T01:30:58;11.17;;;6.57;;
43519;SDS011;46848;51.980;5.918;2023-04-06T01:33:24;9.23;;;5.77;;
43519;SDS011;46848;51.980;5.918;2023-04-06T01:35:50;10.57;;;6.10;;
43519;SDS011;46848;51.980;5.918;2023-04-06T01:38:15;9.37;;;6.20;;
43519;SDS011;46848;51.980;5.918;2023-04-06T01:40:41;8.70;;;5.37;;
43519;SDS011;46848;51.980;5.918;2023-04-06T01:43:06;9.53;;;5.37;;
43519;SDS011;46848;51.980;5.918;2023-04-06T01:45:32;8.10;;;5.60;;
43519;SDS011;46848;51.980;5.918;2023-04-06T01:47:57;9.07;;;5.27;;
43519;SDS011;46848;51.980;5.918;2023-04-06T01:50:23;8.77;;;5.60;;
43519;SDS011;46848;51.980;5.918;2023-04-06T01:52:49;9.10;;;5.90;;
43519;SDS011;46848;51.980;5.918;2023-04-06T01:55:16;12.00;;;6.07;;
43519;SDS011;46848;51.980;5.918;2023-04-06T01:57:41;10.07;;;6.40;;
43519;SDS011;46848;51.980;5.918;2023-04-06T02:00:07;11.60;;;6.70;;
43519;SDS011;46848;51.980;5.918;2023-04-06T02:02:33;10.40;;;5.97;;
43519;SDS011;46848;51.980;5.918;2023-04-06T02:04:58;10.20;;;5.93;;
43519;SDS011;46848;51.980;5.918;2023-04-06T02:07:24;11.30;;;6.13;;
43519;SDS011;46848;51.980;5.918;2023-04-06T02:09:53;10.07;;;6.33;;
43519;SDS011;46848;51.980;5.918;2023-04-06T02:12:20;9.37;;;6.47;;
43519;SDS011;46848;51.980;5.918;2023-04-06T02:14:45;11.17;;;5.77;;
43519;SDS011;46848;51.980;5.918;2023-04-06T02:17:11;10.17;;;5.60;;
43519;SDS011;46848;51.980;5.918;2023-04-06T02:19:36;10.37;;;5.80;;
43519;SDS011;46848;51.980;5.918;2023-04-06T02:22:02;9.10;;;5.67;;
43519;SDS011;46848;51.980;5.918;2023-04-06T02:24:27;9.30;;;6.00;;
43519;SDS011;46848;51.980;5.918;2023-04-06T02:26:53;8.90;;;5.63;;
43519;SDS011;46848;51.980;5.918;2023-04-06T02:29:18;9.07;;;5.63;;
43519;SDS011;46848;51.980;5.918;2023-04-06T02:31:45;9.73;;;5.77;;
43519;SDS011;46848;51.980;5.918;2023-04-06T02:34:10;9.07;;;5.70;;
43519;SDS011;46848;51.980;5.918;2023-04-06T02:36:42;11.30;;;6.45;;
43519;SDS011;46848;51.980;5.918;2023-04-06T02:39:08;8.80;;;5.07;;
43519;SDS011;46848;51.980;5.918;2023-04-06T02:41:34;11.23;;;6.30;;
43519;SDS011;46848;51.980;5.918;2023-04-06T02:44:00;10.27;;;6.37;;
43519;SDS011;46848;51.980;5.918;2023-04-06T02:46:26;11.57;;;6.53;;
43519;SDS011;46848;51.980;5.918;2023-04-06T02:48:51;11.00;;;5.90;;
43519;SDS011;46848;51.980;5.918;2023-04-06T02:51:17;9.37;;;5.63;;
43519;SDS011;46848;51.980;5.918;2023-04-06T02:53:43;9.67;;;5.90;;
43519;SDS011;46848;51.980;5.918;2023-04-06T02:56:08;9.23;;;5.70;;
43519;SDS011;46848;51.980;5.918;2023-04-06T02:58:34;10.43;;;5.73;;
43519;SDS011;46848;51.980;5.918;2023-04-06T03:01:00;11.50;;;6.37;;
43519;SDS011;46848;51.980;5.918;2023-04-06T03:03:25;9.70;;;5.87;;
43519;SDS011;46848;51.980;5.918;2023-04-06T03:05:51;11.27;;;6.20;;
43519;SDS011;46848;51.980;5.918;2023-04-06T03:08:16;9.97;;;5.90;;
43519;SDS011;46848;51.980;5.918;2023-04-06T03:10:42;11.77;;;6.70;;
43519;SDS011;46848;51.980;5.918;2023-04-06T03:13:08;9.83;;;6.10;;
43519;SDS011;46848;51.980;5.918;2023-04-06T03:15:33;10.43;;;5.80;;
43519;SDS011;46848;51.980;5.918;2023-04-06T03:17:59;12.07;;;6.63;;
43519;SDS011;46848;51.980;5.918;2023-04-06T03:20:25;9.13;;;5.60;;
43519;SDS011;46848;51.980;5.918;2023-04-06T03:22:50;9.47;;;5.80;;
43519;SDS011;46848;51.980;5.918;2023-04-06T03:25:16;10.03;;;6.30;;
43519;SDS011;46848;51.980;5.918;2023-04-06T03:27:41;9.97;;;5.87;;
43519;SDS011;46848;51.980;5.918;2023-04-06T03:30:07;9.60;;;6.23;;
43519;SDS011;46848;51.980;5.918;2023-04-06T03:32:33;12.67;;;6.83;;
43519;SDS011;46848;51.980;5.918;2023-04-06T03:34:58;10.30;;;6.13;;
43519;SDS011;46848;51.980;5.918;2023-04-06T03:37:24;9.50;;;5.80;;
43519;SDS011;46848;51.980;5.918;2023-04-06T03:39:49;11.70;;;5.93;;
43519;SDS011;46848;51.980;5.918;2023-04-06T03:42:15;11.23;;;6.97;;
43519;SDS011;46848;51.980;5.918;2023-04-06T03:44:41;8.83;;;6.07;;
43519;SDS011;46848;51.980;5.918;2023-04-06T03:47:06;10.20;;;6.03;;
43519;SDS011;46848;51.980;5.918;2023-04-06T03:49:32;10.17;;;6.13;;
43519;SDS011;46848;51.980;5.918;2023-04-06T03:51:57;9.97;;;5.87;;
43519;SDS011;46848;51.980;5.918;2023-04-06T03:54:25;10.60;;;6.77;;
43519;SDS011;46848;51.980;5.918;2023-04-06T03:56:51;11.77;;;6.70;;
43519;SDS011;46848;51.980;5.918;2023-04-06T03:59:16;13.27;;;6.90;;
43519;SDS011;46848;51.980;5.918;2023-04-06T04:01:42;9.77;;;6.47;;
43519;SDS011;46848;51.980;5.918;2023-04-06T04:04:07;10.73;;;6.63;;
43519;SDS011;46848;51.980;5.918;2023-04-06T04:06:33;10.30;;;6.50;;
43519;SDS011;46848;51.980;5.918;2023-04-06T04:08:58;9.30;;;6.53;;
43519;SDS011;46848;51.980;5.918;2023-04-06T04:11:24;10.77;;;6.43;;
43519;SDS011;46848;51.980;5.918;2023-04-06T04:13:50;14.63;;;6.97;;
43519;SDS011;46848;51.980;5.918;2023-04-06T04:16:15;12.57;;;7.77;;
43519;SDS011;46848;51.980;5.918;2023-04-06T04:18:41;11.53;;;7.20;;
43519;SDS011;46848;51.980;5.918;2023-04-06T04:21:08;12.93;;;7.00;;
43519;SDS011;46848;51.980;5.918;2023-04-06T04:23:34;12.53;;;7.73;;
43519;SDS011;46848;51.980;5.918;2023-04-06T04:26:00;12.90;;;8.00;;
43519;SDS011;46848;51.980;5.918;2023-04-06T04:28:25;11.67;;;7.43;;
43519;SDS011;46848;51.980;5.918;2023-04-06T04:30:51;11.67;;;7.33;;
43519;SDS011;46848;51.980;5.918;2023-04-06T04:33:16;11.40;;;6.83;;
43519;SDS011;46848;51.980;5.918;2023-04-06T04:35:42;11.77;;;7.47;;
43519;SDS011;46848;51.980;5.918;2023-04-06T04:38:08;12.93;;;6.80;;
43519;SDS011;46848;51.980;5.918;2023-04-06T04:40:33;11.03;;;6.97;;
43519;SDS011;46848;51.980;5.918;2023-04-06T04:42:59;11.33;;;7.30;;
43519;SDS011;46848;51.980;5.918;2023-04-06T04:45:24;12.37;;;7.53;;
43519;SDS011;46848;51.980;5.918;2023-04-06T04:47:50;13.30;;;7.83;;
43519;SDS011;46848;51.980;5.918;2023-04-06T04:50:16;10.80;;;6.47;;
43519;SDS011;46848;51.980;5.918;2023-04-06T04:52:41;11.90;;;7.23;;
43519;SDS011;46848;51.980;5.918;2023-04-06T04:55:07;10.57;;;6.67;;
43519;SDS011;46848;51.980;5.918;2023-04-06T04:57:32;10.53;;;6.63;;
43519;SDS011;46848;51.980;5.918;2023-04-06T04:59:58;12.20;;;8.03;;
43519;SDS011;46848;51.980;5.918;2023-04-06T05:02:23;11.60;;;7.50;;
43519;SDS011;46848;51.980;5.918;2023-04-06T05:04:49;10.83;;;7.47;;
43519;SDS011;46848;51.980;5.918;2023-04-06T05:07:15;10.93;;;6.67;;
43519;SDS011;46848;51.980;5.918;2023-04-06T05:09:43;10.20;;;7.00;;
43519;SDS011;46848;51.980;5.918;2023-04-06T05:12:09;12.87;;;7.50;;
43519;SDS011;46848;51.980;5.918;2023-04-06T05:14:35;11.23;;;8.00;;
43519;SDS011;46848;51.980;5.918;2023-04-06T05:17:01;11.80;;;7.40;;
43519;SDS011;46848;51.980;5.918;2023-04-06T05:19:26;10.53;;;7.07;;
43519;SDS011;46848;51.980;5.918;2023-04-06T05:21:52;12.07;;;7.83;;
43519;SDS011;46848;51.980;5.918;2023-04-06T05:24:18;13.40;;;8.20;;
43519;SDS011;46848;51.980;5.918;2023-04-06T05:26:43;12.47;;;7.43;;
43519;SDS011;46848;51.980;5.918;2023-04-06T05:29:10;13.43;;;8.30;;
43519;SDS011;46848;51.980;5.918;2023-04-06T05:31:35;12.57;;;7.13;;
43519;SDS011;46848;51.980;5.918;2023-04-06T05:34:01;14.33;;;8.27;;
43519;SDS011;46848;51.980;5.918;2023-04-06T05:36:27;11.67;;;7.60;;
43519;SDS011;46848;51.980;5.918;2023-04-06T05:38:52;13.47;;;7.80;;
43519;SDS011;46848;51.980;5.918;2023-04-06T05:41:18;11.10;;;7.27;;
43519;SDS011;46848;51.980;5.918;2023-04-06T05:43:45;13.00;;;7.27;;
43519;SDS011;46848;51.980;5.918;2023-04-06T05:46:10;12.37;;;7.17;;
43519;SDS011;46848;51.980;5.918;2023-04-06T05:48:36;11.93;;;7.57;;
43519;SDS011;46848;51.980;5.918;2023-04-06T05:51:01;12.30;;;7.87;;
43519;SDS011;46848;51.980;5.918;2023-04-06T05:53:31;13.27;;;8.10;;
43519;SDS011;46848;51.980;5.918;2023-04-06T05:55:56;11.87;;;7.27;;
43519;SDS011;46848;51.980;5.918;2023-04-06T05:58:22;11.60;;;7.50;;
43519;SDS011;46848;51.980;5.918;2023-04-06T06:00:48;15.43;;;7.30;;
43519;SDS011;46848;51.980;5.918;2023-04-06T06:03:14;10.13;;;6.77;;
43519;SDS011;46848;51.980;5.918;2023-04-06T06:05:40;14.00;;;7.13;;
43519;SDS011;46848;51.980;5.918;2023-04-06T06:08:05;10.13;;;7.10;;
43519;SDS011;46848;51.980;5.918;2023-04-06T06:10:31;13.37;;;7.27;;
43519;SDS011;46848;51.980;5.918;2023-04-06T06:12:57;11.40;;;7.60;;
43519;SDS011;46848;51.980;5.918;2023-04-06T06:15:22;16.00;;;8.53;;
43519;SDS011;46848;51.980;5.918;2023-04-06T06:17:48;10.47;;;7.43;;
43519;SDS011;46848;51.980;5.918;2023-04-06T06:20:13;12.37;;;7.83;;
43519;SDS011;46848;51.980;5.918;2023-04-06T06:22:39;11.53;;;8.37;;
43519;SDS011;46848;51.980;5.918;2023-04-06T06:25:05;12.63;;;7.37;;
43519;SDS011;46848;51.980;5.918;2023-04-06T06:27:30;16.77;;;9.47;;
43519;SDS011;46848;51.980;5.918;2023-04-06T06:29:56;13.60;;;8.10;;
43519;SDS011;46848;51.980;5.918;2023-04-06T06:32:22;15.17;;;8.27;;
43519;SDS011;46848;51.980;5.918;2023-04-06T06:34:47;15.90;;;8.13;;
43519;SDS011;46848;51.980;5.918;2023-04-06T06:37:13;15.43;;;8.80;;
43519;SDS011;46848;51.980;5.918;2023-04-06T06:39:38;15.47;;;9.30;;
43519;SDS011;46848;51.980;5.918;2023-04-06T06:42:04;17.47;;;9.00;;
43519;SDS011;46848;51.980;5.918;2023-04-06T06:44:30;13.00;;;7.93;;
43519;SDS011;46848;51.980;5.918;2023-04-06T06:46:55;13.83;;;8.83;;
43519;SDS011;46848;51.980;5.918;2023-04-06T06:49:21;13.10;;;8.17;;
43519;SDS011;46848;51.980;5.918;2023-04-06T06:51:47;15.40;;;8.70;;
43519;SDS011;46848;51.980;5.918;2023-04-06T06:54:12;12.23;;;8.43;;
43519;SDS011;46848;51.980;5.918;2023-04-06T06:56:38;17.97;;;9.90;;
43519;SDS011;46848;51.980;5.918;2023-04-06T06:59:04;14.03;;;9.50;;
43519;SDS011;46848;51.980;5.918;2023-04-06T07:01:32;15.40;;;8.80;;
43519;SDS011;46848;51.980;5.918;2023-04-06T07:03:58;14.37;;;8.63;;
43519;SDS011;46848;51.980;5.918;2023-04-06T07:06:23;12.50;;;8.57;;
43519;SDS011;46848;51.980;5.918;2023-04-06T07:08:49;15.10;;;8.77;;
43519;SDS011;46848;51.980;5.918;2023-04-06T07:11:15;13.17;;;8.33;;
43519;SDS011;46848;51.980;5.918;2023-04-06T07:13:41;14.63;;;9.05;;
43519;SDS011;46848;51.980;5.918;2023-04-06T07:16:07;14.27;;;9.10;;
43519;SDS011;46848;51.980;5.918;2023-04-06T07:18:33;15.18;;;8.45;;
43519;SDS011;46848;51.980;5.918;2023-04-06T07:20:58;14.95;;;9.35;;
43519;SDS011;46848;51.980;5.918;2023-04-06T07:23:24;14.20;;;8.73;;
43519;SDS011;46848;51.980;5.918;2023-04-06T07:25:49;13.07;;;8.88;;
43519;SDS011;46848;51.980;5.918;2023-04-06T07:28:19;12.95;;;8.40;;
43519;SDS011;46848;51.980;5.918;2023-04-06T07:30:45;14.68;;;8.60;;
43519;SDS011;46848;51.980;5.918;2023-04-06T07:33:11;13.70;;;8.77;;
43519;SDS011;46848;51.980;5.918;2023-04-06T07:35:37;14.18;;;9.00;;
43519;SDS011;46848;51.980;5.918;2023-04-06T07:38:02;16.80;;;9.43;;
43519;SDS011;46848;51.980;5.918;2023-04-06T07:40:28;16.75;;;9.48;;
43519;SDS011;46848;51.980;5.918;2023-04-06T07:42:54;18.27;;;9.90;;
43519;SDS011;46848;51.980;5.918;2023-04-06T07:45:21;15.55;;;9.52;;
43519;SDS011;46848;51.980;5.918;2023-04-06T07:47:47;20.48;;;12.15;;
